Friday, October 31, 2014, 10:06 AM EDT

KW99, Petersburg, Grant County Airport

Location: Petersburg, WV, United States Lat: 38.983
Local Time: 10:06 AM EDT (14:06 GMT) Lon: -79.133
Time Zone: US/Eastern Elev: 961 ft

Show me the last for .
Show Decoded

2014-10-31 09:35 METAR KW99 311335Z AUTO 00000KT 10SM OVC046 04/01 A3000 RMK AO2 T00430010 =
2014-10-31 09:15 METAR KW99 311315Z AUTO 00000KT 10SM OVC046 04/01 A3000 RMK AO2 T00400008 =
2014-10-31 08:55 METAR KW99 311255Z AUTO 00000KT 10SM OVC046 04/01 A3000 RMK AO2 T00400007 =
2014-10-31 08:35 METAR KW99 311235Z AUTO 00000KT 10SM OVC046 04/01 A3000 RMK AO2 T00350005 =
2014-10-31 08:15 METAR KW99 311215Z AUTO 00000KT 10SM OVC046 04/01 A2999 RMK AO2 T00350008 =
2014-10-31 07:55 METAR KW99 311155Z AUTO 00000KT 10SM BKN046 03/01 A3000 RMK AO2 T00300005 10050
                 20027 =
2014-10-31 07:35 METAR KW99 311135Z AUTO 00000KT 10SM SCT046 03/00 A2999 RMK AO2 T00280001 =
2014-10-31 07:15 METAR KW99 311115Z AUTO 00000KT 10SM OVC048 04/01 A3000 RMK AO2 T00370011 =
2014-10-31 06:55 METAR KW99 311055Z AUTO 00000KT 10SM OVC048 04/01 A3000 RMK AO2 T00410009 =
2014-10-31 06:35 METAR KW99 311035Z AUTO 00000KT 10SM OVC050 04/01 A3001 RMK AO2 T00400010 =
2014-10-31 06:15 METAR KW99 311015Z AUTO 00000KT 10SM OVC050 04/01 A3001 RMK AO2 T00380012 =
2014-10-31 05:55 METAR KW99 310955Z AUTO 00000KT 10SM OVC050 04/01 A3001 RMK AO2 T00370007 =
2014-10-31 05:35 METAR KW99 310935Z AUTO 00000KT 10SM OVC050 04/01 A3001 RMK AO2 T00370005 =
2014-10-31 05:15 METAR KW99 310915Z AUTO 14003KT 10SM OVC050 04/00 A3001 RMK AO2 T00370001 =
2014-10-31 04:55 METAR KW99 310855Z AUTO 00000KT 10SM OVC050 04/01 A3002 RMK AO2 T00420007 =
2014-10-31 04:35 METAR KW99 310835Z AUTO 00000KT 10SM OVC050 04/01 A3002 RMK AO2 T00430010 =
2014-10-31 04:15 METAR KW99 310815Z AUTO 00000KT 10SM OVC048 05/01 A3003 RMK AO2 T00450010 =
2014-10-31 03:35 METAR KW99 310735Z AUTO 00000KT 10SM OVC048 04/01 A3003 RMK AO2 T00410012 =
2014-10-31 03:15 METAR KW99 310715Z AUTO 00000KT 10SM OVC050 04/01 A3003 RMK AO2 T00420007 =
2014-10-31 02:55 METAR KW99 310655Z AUTO 00000KT 10SM BKN050 05/00 A3004 RMK AO2 T00450003 =
2014-10-31 02:35 METAR KW99 310635Z AUTO 16003KT 10SM BKN048 05/00 A3004 RMK AO2 T00450003 =
2014-10-31 02:15 METAR KW99 310615Z AUTO 10003KT 10SM OVC048 05/01 A3004 RMK AO2 T00480012 =
2014-10-31 01:55 METAR KW99 310555Z AUTO 00000KT 10SM OVC046 05/01 A3005 RMK AO2 T00490014 10092
                 20032 401110032 =
2014-10-31 01:35 METAR KW99 310535Z AUTO 00000KT 10SM OVC046 05/01 A3005 RMK AO2 T00470010 =
2014-10-31 01:15 METAR KW99 310515Z AUTO 00000KT 10SM OVC046 05/01 A3005 RMK AO2 T00450009 =
2014-10-31 00:55 METAR KW99 310455Z AUTO 00000KT 10SM OVC046 04/01 A3006 RMK AO2 T00400011 =
2014-10-31 00:35 METAR KW99 310435Z AUTO 00000KT 10SM OVC044 04/01 A3006 RMK AO2 T00350008 =
2014-10-31 00:15 METAR KW99 310415Z AUTO 00000KT 10SM SCT044 04/01 A3006 RMK AO2 T00390014 =
2014-10-30 23:55 METAR KW99 310355Z AUTO 00000KT 10SM SCT046 04/01 A3006 RMK AO2 T00410012 =
2014-10-30 23:35 METAR KW99 310335Z AUTO 00000KT 10SM SCT046 04/01 A3006 RMK AO2 T00410006 =
2014-10-30 23:15 METAR KW99 310315Z AUTO 00000KT 10SM SCT046 05/01 A3006 RMK AO2 T00470008 =
2014-10-30 22:55 METAR KW99 310255Z AUTO 00000KT 10SM CLR 05/01 A3006 RMK AO2 T00520012 =
2014-10-30 22:35 METAR KW99 310235Z AUTO 00000KT 10SM SCT044 06/02 A3007 RMK AO2 T00640015 =
2014-10-30 22:15 METAR KW99 310215Z AUTO 00000KT 10SM OVC044 07/02 A3007 RMK AO2 T00730016 =
2014-10-30 21:55 METAR KW99 310155Z AUTO 00000KT 10SM OVC046 08/01 A3007 RMK AO2 T00790011 =
2014-10-30 21:35 METAR KW99 310135Z AUTO 00000KT 10SM OVC046 08/00 A3007 RMK AO2 T00840004 =
2014-10-30 21:15 METAR KW99 310115Z AUTO 29003KT 10SM OVC046 08/01 A3007 RMK AO2 T00780005 =
2014-10-30 20:55 METAR KW99 310055Z AUTO 00000KT 10SM OVC046 08/00 A3007 RMK AO2 T00800004 =
2014-10-30 20:35 METAR KW99 310035Z AUTO 30005KT 10SM OVC046 09/M01 A3007 RMK AO2 T00871008 =
2014-10-30 20:15 METAR KW99 310015Z AUTO 30005KT 10SM OVC046 09/M01 A3007 RMK AO2 T00901006 =
2014-10-30 19:55 METAR KW99 302355Z AUTO 30004KT 10SM OVC046 09/00 A3007 RMK AO2 T00931001 10111
                 20093 =
2014-10-30 19:35 METAR KW99 302335Z AUTO 30004KT 10SM OVC046 10/00 A3007 RMK AO2 T00960001 =
2014-10-30 19:15 METAR KW99 302315Z AUTO 31005KT 10SM OVC046 10/00 A3007 RMK AO2 T00990002 =
2014-10-30 18:55 METAR KW99 302255Z AUTO 31004KT 10SM OVC048 10/00 A3006 RMK AO2 T01010001 =
2014-10-30 18:35 METAR KW99 302235Z AUTO 31003KT 10SM OVC048 11/00 A3007 RMK AO2 T01051002 =
2014-10-30 18:15 METAR KW99 302215Z AUTO 33003KT 10SM OVC048 10/00 A3006 RMK AO2 T01040000 =
2014-10-30 17:55 METAR KW99 302155Z AUTO 33004KT 10SM OVC050 11/00 A3006 RMK AO2 T01071001 =
2014-10-30 17:35 METAR KW99 302135Z AUTO 32004KT 10SM OVC050 11/00 A3006 RMK AO2 T01061002 =
2014-10-30 17:15 METAR KW99 302115Z AUTO 30004KT 10SM OVC050 11/00 A3006 RMK AO2 T01050001 =
2014-10-30 16:55 METAR KW99 302055Z AUTO 00000KT 10SM OVC050 11/M01 A3006 RMK AO2 T01071008 =
2014-10-30 16:35 METAR KW99 302035Z AUTO 00000KT 10SM OVC050 11/M01 A3006 RMK AO2 T01051009 =
2014-10-30 16:15 METAR KW99 302015Z AUTO 00000KT 10SM OVC050 11/M01 A3006 RMK AO2 T01051007 =
2014-10-30 15:55 METAR KW99 301955Z AUTO 00000KT 10SM OVC050 11/M01 A3006 RMK AO2 T01051009 =
2014-10-30 15:15 METAR KW99 301915Z AUTO 00000KT 10SM OVC050 11/M01 A3006 RMK AO2 T01081009 =
2014-10-30 14:55 METAR KW99 301855Z AUTO 25003KT 10SM OVC050 11/M01 A3006 RMK AO2 T01101006 =
2014-10-30 14:35 METAR KW99 301835Z AUTO 00000KT 10SM OVC050 11/M01 A3007 RMK AO2 T01091009 =
2014-10-30 14:15 METAR KW99 301815Z AUTO 00000KT 10SM OVC050 11/00 A3007 RMK AO2 T01091005 =
2014-10-30 13:55 METAR KW99 301755Z AUTO 00000KT 10SM OVC048 11/M01 A3008 RMK AO2 T01091009 10110
                 20058 =
2014-10-30 13:35 METAR KW99 301735Z AUTO 00000KT 10SM OVC048 11/00 A3009 RMK AO2 T01101002 =
2014-10-30 13:15 METAR KW99 301715Z AUTO 00000KT 10SM OVC050 11/00 A3009 RMK AO2 T01081001 =
2014-10-30 12:55 METAR KW99 301655Z AUTO 00000KT 10SM OVC050 11/00 A3010 RMK AO2 T01051002 =
2014-10-30 12:35 METAR KW99 301635Z AUTO 00000KT 10SM OVC048 11/01 A3011 RMK AO2 T01050007 =
2014-10-30 12:15 METAR KW99 301615Z AUTO 00000KT 10SM OVC048 10/00 A3011 RMK AO2 T01021001 =
2014-10-30 11:55 METAR KW99 301555Z AUTO 00000KT 10SM OVC048 10/02 A3011 RMK AO2 T01010019 =
2014-10-30 11:35 METAR KW99 301535Z AUTO 00000KT 10SM OVC046 10/03 A3012 RMK AO2 T00950033 =
2014-10-30 11:15 METAR KW99 301515Z AUTO 00000KT 10SM OVC046 10/01 A3012 RMK AO2 T00980013 =
2014-10-30 10:55 METAR KW99 301455Z AUTO 00000KT 10SM OVC044 10/03 A3012 RMK AO2 T00950027 =
2014-10-30 10:35 METAR KW99 301435Z AUTO 00000KT 10SM OVC040 09/06 A3012 RMK AO2 T00850059 =
2014-10-30 10:15 METAR KW99 301415Z AUTO 00000KT 10SM OVC042 08/06 A3011 RMK AO2 T00840056 =

Support USWX by starting your Amazon purchase here.